Time;durP1;ratioP1;P1;durP2;ratioP2;P2;SDS_P1;SDS_P2;PMS_P1;PMS_P2;Temp;Humidity;BMP_temperature;BMP_pressure;BME280_temperature;BME280_humidity;BME280_pressure;Samples;Min_cycle;Max_cycle;Signal;HPM_P1;HPM_P2
2021/11/10 00:00:38;;;;;;;1999.90;999.90;;;3.70;99.90;;;;;;4998474;28;20192;-84
2021/11/10 00:03:03;;;;;;;1999.90;999.90;;;3.70;99.90;;;;;;4997846;28;20178;-82
2021/11/10 00:05:29;;;;;;;1999.90;999.90;;;3.70;99.90;;;;;;4981072;28;20655;-84
2021/11/10 00:07:54;;;;;;;1999.90;999.90;;;3.60;99.90;;;;;;4980987;28;20207;-84
2021/11/10 00:10:20;;;;;;;1999.90;999.90;;;3.60;99.90;;;;;;4981255;28;20201;-83
2021/11/10 00:12:46;;;;;;;1999.90;999.90;;;3.70;99.90;;;;;;4997692;28;20549;-83
2021/11/10 00:15:12;;;;;;;1999.90;999.90;;;3.60;99.90;;;;;;4980679;28;20656;-83
2021/11/10 00:17:37;;;;;;;1999.90;999.90;;;3.70;99.90;;;;;;4980648;28;20200;-83
2021/11/10 00:20:04;;;;;;;1999.90;999.90;;;3.50;99.90;;;;;;4979689;28;20866;-84
2021/11/10 00:22:30;;;;;;;1999.90;999.90;;;3.60;99.90;;;;;;4995866;28;20173;-83
2021/11/10 00:24:55;;;;;;;1999.90;999.90;;;3.50;99.90;;;;;;4980783;28;20180;-83
2021/11/10 00:27:21;;;;;;;1999.90;999.90;;;3.60;99.90;;;;;;4995990;28;20203;-83
2021/11/10 00:29:48;;;;;;;1999.90;999.90;;;3.60;99.90;;;;;;4979753;28;20207;-84
2021/11/10 00:32:14;;;;;;;1999.90;999.90;;;3.40;99.90;;;;;;4995561;28;20703;-82
2021/11/10 00:34:39;;;;;;;1999.90;999.90;;;3.40;99.90;;;;;;4995298;28;20181;-83
2021/11/10 00:37:05;;;;;;;1999.90;999.90;;;3.40;99.90;;;;;;4978405;28;20286;-84
2021/11/10 00:39:31;;;;;;;1999.90;999.90;;;3.40;99.90;;;;;;4995111;28;20569;-84
2021/11/10 00:41:56;;;;;;;1999.90;999.90;;;3.30;99.90;;;;;;4979451;28;20192;-84
2021/11/10 00:44:22;;;;;;;1999.90;999.90;;;3.30;99.90;;;;;;4978800;28;20188;-84
2021/11/10 00:46:47;;;;;;;1999.90;999.90;;;3.30;99.90;;;;;;4977852;28;20225;-84
2021/11/10 00:49:13;;;;;;;1999.90;999.90;;;3.30;99.90;;;;;;4978772;28;20211;-83
2021/11/10 00:51:39;;;;;;;1999.90;999.90;;;3.40;99.90;;;;;;4979139;28;20180;-83
2021/11/10 00:54:04;;;;;;;1999.90;999.90;;;3.40;99.90;;;;;;4978786;28;20212;-82
2021/11/10 00:56:30;;;;;;;1999.90;999.90;;;3.30;99.90;;;;;;4978629;28;20224;-84
2021/11/10 00:58:55;;;;;;;1999.90;999.90;;;3.20;99.90;;;;;;4978798;28;20184;-84
2021/11/10 01:01:21;;;;;;;1999.90;999.90;;;3.20;99.90;;;;;;4978722;28;20216;-84
2021/11/10 01:03:46;;;;;;;1999.90;999.90;;;3.20;99.90;;;;;;4995689;28;20234;-81
2021/11/10 01:06:12;;;;;;;1999.90;999.90;;;3.20;99.90;;;;;;4978298;28;20191;-84
2021/11/10 01:08:37;;;;;;;1999.90;999.90;;;3.10;99.90;;;;;;4977588;28;20214;-84
2021/11/10 01:11:03;;;;;;;1999.90;999.90;;;3.20;99.90;;;;;;4978120;28;20187;-84
2021/11/10 01:13:28;;;;;;;1999.90;999.90;;;3.20;99.90;;;;;;4993912;28;20181;-82
2021/11/10 01:15:54;;;;;;;1999.90;999.90;;;3.30;99.90;;;;;;4993978;28;20177;-84
2021/11/10 01:18:20;;;;;;;1999.90;999.90;;;3.10;99.90;;;;;;4994430;28;20208;-84
2021/11/10 01:20:45;;;;;;;1999.90;999.90;;;3.20;99.90;;;;;;4977386;28;20189;-83
2021/11/10 01:23:11;;;;;;;1999.90;999.90;;;3.20;99.90;;;;;;4994124;28;20173;-83
2021/11/10 01:25:38;;;;;;;1999.90;999.90;;;3.40;99.90;;;;;;4977691;28;20641;-83
2021/11/10 01:28:05;;;;;;;1999.90;999.90;;;3.10;99.90;;;;;;4994245;28;20193;-83
2021/11/10 01:30:30;;;;;;;1999.90;999.90;;;3.30;99.90;;;;;;4985836;28;20235;-84
2021/11/10 01:32:56;;;;;;;1999.90;999.90;;;3.30;99.90;;;;;;4982604;28;20181;-82
2021/11/10 01:35:21;;;;;;;1999.90;999.90;;;3.10;99.90;;;;;;4998278;28;20185;-84
2021/11/10 01:37:47;;;;;;;1999.90;999.90;;;3.20;99.90;;;;;;4981667;28;20292;-80
2021/11/10 01:40:13;;;;;;;1999.90;999.90;;;3.30;99.90;;;;;;4996821;28;20235;-83
2021/11/10 01:42:41;;;;;;;1999.90;999.90;;;3.10;99.90;;;;;;4996067;28;20232;-84
2021/11/10 01:45:08;;;;;;;1999.90;999.90;;;3.00;99.90;;;;;;4979846;28;20181;-83
2021/11/10 01:47:33;;;;;;;1999.90;999.90;;;3.10;99.90;;;;;;4978845;28;20220;-82
2021/11/10 01:49:59;;;;;;;1999.90;999.90;;;2.90;99.90;;;;;;4978772;28;20831;-84
2021/11/10 01:52:24;;;;;;;1999.90;999.90;;;3.00;99.90;;;;;;4994508;28;20180;-84
2021/11/10 01:54:50;;;;;;;1999.90;999.90;;;;;;;;;;4978010;28;20188;-81
2021/11/10 01:57:17;;;;;;;1999.90;999.90;;;;;;;;;;4994157;28;20224;-82
2021/11/10 01:59:44;;;;;;;1999.90;999.90;;;;;;;;;;4972915;28;20696;-81
2021/11/10 02:02:19;;;;;;;1999.90;999.90;;;;;;;;;;4989487;28;20191;-81
2021/11/10 02:04:47;;;;;;;1999.90;999.90;;;2.60;99.90;;;;;;4973709;28;20206;-81
2021/11/10 02:07:12;;;;;;;1999.90;999.90;;;2.90;99.90;;;;;;4972880;28;20243;-82
2021/11/10 02:09:38;;;;;;;1999.90;999.90;;;2.90;99.90;;;;;;4989029;28;20240;-83
2021/11/10 02:12:05;;;;;;;1999.90;999.90;;;2.80;99.90;;;;;;4973679;28;20556;-81
2021/11/10 02:14:31;;;;;;;1999.90;999.90;;;2.80;99.90;;;;;;4992503;28;20180;-81
2021/11/10 02:16:56;;;;;;;1999.90;999.90;;;2.90;99.90;;;;;;4976292;28;20204;-82
2021/11/10 02:19:22;;;;;;;1999.90;999.90;;;2.90;99.90;;;;;;4976658;28;20219;-82
2021/11/10 02:21:51;;;;;;;1999.90;999.90;;;2.70;99.90;;;;;;4976662;28;20187;-82
2021/11/10 02:24:17;;;;;;;1999.90;999.90;;;2.80;99.90;;;;;;4992211;28;20629;-83
2021/11/10 02:26:44;;;;;;;1999.90;999.90;;;2.90;99.90;;;;;;4976186;28;20259;-85
2021/11/10 02:29:15;;;;;;;1999.90;999.90;;;2.80;99.90;;;;;;4975910;28;20205;-83
2021/11/10 02:31:40;;;;;;;1999.90;999.90;;;2.80;99.90;;;;;;4991894;28;20177;-81
2021/11/10 02:34:06;;;;;;;1999.90;999.90;;;2.80;99.90;;;;;;4976058;28;20268;-82
2021/11/10 02:36:32;;;;;;;1999.90;999.90;;;2.80;99.90;;;;;;4975852;28;20299;-81
2021/11/10 02:39:09;;;;;;;1999.90;999.90;;;2.60;99.90;;;;;;4975351;28;20556;-81
2021/11/10 02:41:34;;;;;;;1999.90;999.90;;;2.80;99.90;;;;;;4974674;28;20215;-81
2021/11/10 02:44:00;;;;;;;1999.90;999.90;;;2.70;99.90;;;;;;4975302;28;20562;-81
2021/11/10 02:46:25;;;;;;;1999.90;999.90;;;2.70;99.90;;;;;;4991298;28;20590;-83
2021/11/10 02:48:51;;;;;;;1999.90;999.90;;;2.60;99.90;;;;;;4975111;28;20204;-83
2021/11/10 02:51:17;;;;;;;1999.90;999.90;;;2.70;99.90;;;;;;4991446;28;20181;-85
2021/11/10 02:53:43;;;;;;;1999.90;999.90;;;2.60;99.90;;;;;;4991378;28;20180;-81
2021/11/10 02:56:08;;;;;;;1999.90;999.90;;;2.60;99.90;;;;;;4974891;28;20179;-83
2021/11/10 02:58:35;;;;;;;1999.90;999.90;;;2.60;99.90;;;;;;4991443;28;20200;-83
2021/11/10 03:01:03;;;;;;;1999.90;999.90;;;2.50;99.90;;;;;;4974925;28;20188;-83
2021/11/10 03:03:28;;;;;;;1999.90;999.90;;;2.50;99.90;;;;;;4975001;28;20194;-82
2021/11/10 03:05:54;;;;;;;1999.90;999.90;;;2.80;99.90;;;;;;4991065;28;20184;-84
2021/11/10 03:08:20;;;;;;;1999.90;999.90;;;2.50;99.90;;;;;;4991031;28;20223;-83
2021/11/10 03:10:45;;;;;;;1999.90;999.90;;;2.40;99.90;;;;;;4974675;28;20659;-83
2021/11/10 03:13:12;;;;;;;1999.90;999.90;;;2.40;99.90;;;;;;4974500;28;20185;-84
2021/11/10 03:15:39;;;;;;;1999.90;999.90;;;2.60;99.90;;;;;;4974283;28;20697;-85
2021/11/10 03:18:04;;;;;;;1999.90;999.90;;;2.60;99.90;;;;;;4974633;28;20212;-81
2021/11/10 03:20:30;;;;;;;1999.90;999.90;;;2.50;99.90;;;;;;4974636;28;20180;-84
2021/11/10 03:22:55;;;;;;;1999.90;999.90;;;2.60;99.90;;;;;;4974191;28;20216;-85
2021/11/10 03:25:21;;;;;;;1999.90;999.90;;;2.50;99.90;;;;;;4974346;28;20553;-81
2021/11/10 03:27:46;;;;;;;1999.90;999.90;;;2.40;99.90;;;;;;4990301;28;20551;-83
2021/11/10 03:30:12;;;;;;;1999.90;999.90;;;2.50;99.90;;;;;;4975537;28;20627;-80
2021/11/10 03:32:38;;;;;;;1999.90;999.90;;;2.30;99.90;;;;;;4974300;28;20229;-81
2021/11/10 03:35:04;;;;;;;1999.90;999.90;;;2.30;99.90;;;;;;4974304;28;20219;-81
2021/11/10 03:37:29;;;;;;;1999.90;999.90;;;2.40;99.90;;;;;;4990097;28;20272;-82
2021/11/10 03:39:55;;;;;;;1999.90;999.90;;;2.30;99.90;;;;;;4974053;28;20618;-84
2021/11/10 03:42:21;;;;;;;1999.90;999.90;;;2.40;99.90;;;;;;4974221;28;20181;-84
2021/11/10 03:44:46;;;;;;;1999.90;999.90;;;2.30;99.90;;;;;;4973926;28;20255;-84
2021/11/10 03:47:12;;;;;;;1999.90;999.90;;;2.40;99.90;;;;;;4990182;28;20307;-84
2021/11/10 03:49:37;;;;;;;1999.90;999.90;;;2.40;99.90;;;;;;4974054;28;20204;-85
2021/11/10 03:52:03;;;;;;;1999.90;999.90;;;2.40;99.90;;;;;;4974476;28;20202;-84
2021/11/10 03:54:29;;;;;;;1999.90;999.90;;;2.40;99.90;;;;;;4975630;28;20666;-81
2021/11/10 03:56:55;;;;;;;1999.90;999.90;;;;;;;;;;4973770;28;20204;-83
2021/11/10 03:59:21;;;;;;;1999.90;999.90;;;2.20;99.90;;;;;;4973606;28;20183;-83
2021/11/10 04:01:47;;;;;;;1999.90;999.90;;;;;;;;;;4973817;28;20175;-82
2021/11/10 04:04:13;;;;;;;1999.90;999.90;;;2.00;99.90;;;;;;4974047;28;20251;-82
2021/11/10 04:06:38;;;;;;;1999.90;999.90;;;2.30;99.90;;;;;;4989802;28;20675;-82
2021/11/10 04:09:05;;;;;;;1999.90;999.90;;;2.20;99.90;;;;;;4973521;28;20255;-82
2021/11/10 04:11:31;;;;;;;1999.90;999.90;;;2.30;99.90;;;;;;4973738;28;20597;-85
2021/11/10 04:13:57;;;;;;;1999.90;999.90;;;2.20;99.90;;;;;;4989943;28;20217;-84
2021/11/10 04:16:22;;;;;;;1999.90;999.90;;;2.20;99.90;;;;;;4973441;28;20217;-83
2021/11/10 04:18:52;;;;;;;1999.90;999.90;;;2.20;99.90;;;;;;4973734;28;20177;-83
2021/11/10 04:21:19;;;;;;;1999.90;999.90;;;2.10;99.90;;;;;;4989963;28;20196;-82
2021/11/10 04:23:44;;;;;;;1999.90;999.90;;;2.10;99.90;;;;;;4990327;28;20172;-83
2021/11/10 04:26:10;;;;;;;1999.90;999.90;;;2.20;99.90;;;;;;4990597;28;20227;-83
2021/11/10 04:28:35;;;;;;;1999.90;999.90;;;2.20;99.90;;;;;;4992382;28;20664;-83
2021/11/10 04:31:01;;;;;;;1999.90;999.90;;;2.10;99.90;;;;;;4975949;28;20533;-81
2021/11/10 04:33:26;;;;;;;1999.90;999.90;;;2.10;99.90;;;;;;4974912;28;20338;-81
2021/11/10 04:35:52;;;;;;;1999.90;999.90;;;2.10;99.90;;;;;;4974641;28;20176;-84
2021/11/10 04:38:17;;;;;;;1999.90;999.90;;;2.10;99.90;;;;;;4974654;28;20201;-82
2021/11/10 04:40:44;;;;;;;1999.90;999.90;;;2.00;99.90;;;;;;4990932;28;20181;-81
2021/11/10 04:43:09;;;;;;;1999.90;999.90;;;2.20;99.90;;;;;;4974355;28;20560;-81
2021/11/10 04:45:37;;;;;;;1999.90;999.90;;;2.10;99.90;;;;;;4974209;28;20183;-82
2021/11/10 04:48:02;;;;;;;1999.90;999.90;;;2.20;99.90;;;;;;4973749;28;20211;-81
2021/11/10 04:50:28;;;;;;;1999.90;999.90;;;2.00;99.90;;;;;;4973836;28;20209;-83
2021/11/10 04:52:54;;;;;;;1999.90;999.90;;;2.10;99.90;;;;;;4973988;28;20189;-82
2021/11/10 04:55:19;;;;;;;1999.90;999.90;;;2.20;99.90;;;;;;4974426;28;20172;-81
2021/11/10 04:57:45;;;;;;;1999.90;999.90;;;2.10;99.90;;;;;;4974020;28;20196;-82
2021/11/10 05:00:11;;;;;;;1999.90;999.90;;;2.00;99.90;;;;;;4973699;28;20267;-82
2021/11/10 05:02:37;;;;;;;1999.90;999.90;;;2.00;99.90;;;;;;4973713;28;20642;-81
2021/11/10 05:05:04;;;;;;;1999.90;999.90;;;2.10;99.90;;;;;;4973962;28;20181;-81
2021/11/10 05:07:29;;;;;;;1999.90;999.90;;;2.00;99.90;;;;;;4974035;28;20207;-82
2021/11/10 05:09:55;;;;;;;1999.90;999.90;;;1.90;99.90;;;;;;4989426;28;20573;-84
2021/11/10 05:12:20;;;;;;;1999.90;999.90;;;2.10;99.90;;;;;;4989552;28;20177;-84
2021/11/10 05:14:46;;;;;;;1999.90;999.90;;;2.00;99.90;;;;;;4973365;28;20180;-83
2021/11/10 05:17:12;;;;;;;1999.90;999.90;;;2.00;99.90;;;;;;4973437;28;20195;-81
2021/11/10 05:19:38;;;;;;;1999.90;999.90;;;2.10;99.90;;;;;;4973360;28;20208;-81
2021/11/10 05:22:03;;;;;;;1999.90;999.90;;;2.00;99.90;;;;;;4973448;28;20564;-83
2021/11/10 05:24:29;;;;;;;1999.90;999.90;;;1.90;99.90;;;;;;4973091;28;20227;-82
2021/11/10 05:26:54;;;;;;;1999.90;999.90;;;1.90;99.90;;;;;;4989368;28;20232;-84
2021/11/10 05:29:20;;;;;;;1999.90;999.90;;;1.90;99.90;;;;;;4972971;28;20205;-81
2021/11/10 05:31:46;;;;;;;1999.90;999.90;;;2.00;99.90;;;;;;4989419;28;20255;-81
2021/11/10 05:34:11;;;;;;;1999.90;999.90;;;1.90;99.90;;;;;;4989296;28;20188;-82
2021/11/10 05:36:37;;;;;;;1999.90;999.90;;;1.90;99.90;;;;;;4989136;28;20204;-84
2021/11/10 05:39:03;;;;;;;1999.90;999.90;;;1.90;99.90;;;;;;4973258;28;20308;-82
2021/11/10 05:41:28;;;;;;;1999.90;999.90;;;2.00;99.90;;;;;;4972912;28;20189;-81
2021/11/10 05:43:54;;;;;;;1999.90;999.90;;;1.90;99.90;;;;;;4972949;28;20185;-82
2021/11/10 05:46:19;;;;;;;1999.90;999.90;;;1.90;99.90;;;;;;4973937;28;20196;-84
2021/11/10 05:48:46;;;;;;;1999.90;999.90;;;1.90;99.90;;;;;;4976338;28;20684;-84
2021/11/10 05:51:12;;;;;;;1999.90;999.90;;;1.80;99.90;;;;;;4976837;28;20176;-81
2021/11/10 05:53:43;;;;;;;1999.90;999.90;;;1.80;99.90;;;;;;4976676;28;20182;-84
2021/11/10 05:56:16;;;;;;;1999.90;999.90;;;1.90;99.90;;;;;;4977121;28;20181;-85
2021/11/10 05:58:43;;;;;;;1999.90;999.90;;;1.90;99.90;;;;;;4961542;28;20246;-86
2021/11/10 06:01:08;;;;;;;1999.90;999.90;;;1.90;99.90;;;;;;4945125;28;20645;-82
2021/11/10 06:03:34;;;;;;;1999.90;999.90;;;1.80;99.90;;;;;;4946224;28;20181;-83
2021/11/10 06:05:59;;;;;;;1999.90;999.90;;;1.90;99.90;;;;;;4947076;28;20177;-87
2021/11/10 06:08:25;;;;;;;1999.90;999.90;;;1.80;99.90;;;;;;4944628;28;20189;-81
2021/11/10 06:10:51;;;;;;;1999.90;999.90;;;1.80;99.90;;;;;;4960938;28;20212;-81
2021/11/10 06:13:16;;;;;;;1999.90;999.90;;;1.80;99.90;;;;;;4946215;28;20210;-85
2021/11/10 06:15:42;;;;;;;1999.90;999.90;;;1.80;99.90;;;;;;4962432;28;20548;-85
2021/11/10 06:18:07;;;;;;;1999.90;999.90;;;1.70;99.90;;;;;;4946668;28;20208;-84
2021/11/10 06:20:35;;;;;;;1999.90;999.90;;;1.90;99.90;;;;;;4944889;28;20188;-81
2021/11/10 06:23:02;;;;;;;1999.90;999.90;;;1.80;99.90;;;;;;4960516;28;20184;-84
2021/11/10 06:25:27;;;;;;;1999.90;999.90;;;1.90;99.90;;;;;;4944203;28;20196;-80
2021/11/10 06:27:53;;;;;;;1999.90;999.90;;;2.00;99.90;;;;;;4960267;28;20200;-81
2021/11/10 06:30:18;;;;;;;1999.90;999.90;;;1.80;99.90;;;;;;4943895;28;20212;-83
2021/11/10 06:32:45;;;;;;;1999.90;999.90;;;1.90;99.90;;;;;;4944011;28;20188;-85
2021/11/10 06:35:12;;;;;;;1999.90;999.90;;;1.80;99.90;;;;;;4944299;28;20671;-82
2021/11/10 06:37:37;;;;;;;1999.90;999.90;;;1.90;99.90;;;;;;4943474;28;20273;-83
2021/11/10 06:40:04;;;;;;;1999.90;999.90;;;1.90;99.90;;;;;;4960656;28;20205;-83
2021/11/10 06:42:29;;;;;;;1999.90;999.90;;;1.80;99.90;;;;;;4960181;28;20185;-82
2021/11/10 06:44:56;;;;;;;1999.90;999.90;;;1.70;99.90;;;;;;4946227;28;20199;-84
2021/11/10 06:47:22;;;;;;;1999.90;999.90;;;1.80;99.90;;;;;;4955384;28;20292;-83
2021/11/10 06:49:48;;;;;;;1999.90;999.90;;;1.70;99.90;;;;;;4958767;28;20203;-81
2021/11/10 06:52:13;;;;;;;1999.90;999.90;;;1.80;99.90;;;;;;4958432;29;20177;-84
2021/11/10 06:54:39;;;;;;;1999.90;999.90;;;1.70;99.90;;;;;;4960059;28;20181;-84
2021/11/10 06:57:04;;;;;;;1999.90;999.90;;;1.70;99.90;;;;;;4968412;28;20251;-84
2021/11/10 06:59:30;;;;;;;1999.90;999.90;;;1.70;99.90;;;;;;4971662;28;20181;-85
2021/11/10 07:01:56;;;;;;;1999.90;999.90;;;1.70;99.90;;;;;;4979225;28;20674;-82
2021/11/10 07:04:21;;;;;;;1999.90;999.90;;;1.60;99.90;;;;;;4943209;28;20220;-83
2021/11/10 07:06:47;;;;;;;1999.90;999.90;;;1.70;99.90;;;;;;4955970;28;20616;-84
2021/11/10 07:09:12;;;;;;;1999.90;999.90;;;1.70;99.90;;;;;;4981362;28;20707;-84
2021/11/10 07:11:38;;;;;;;1999.90;999.90;;;1.80;99.90;;;;;;4974667;28;20185;-84
2021/11/10 07:14:08;;;;;;;1999.90;999.90;;;;;;;;;;4942056;28;20549;-84
2021/11/10 07:16:35;;;;;;;1999.90;999.90;;;;;;;;;;4957368;28;20580;-83
2021/11/10 07:19:01;;;;;;;1999.90;999.90;;;1.80;99.90;;;;;;4955991;28;20634;-83
2021/11/10 07:21:27;;;;;;;1999.90;999.90;;;2.20;99.90;;;;;;4976696;28;20190;-83
2021/11/10 07:23:53;;;;;;;1999.90;999.90;;;2.10;99.90;;;;;;4978318;28;20229;-82
2021/11/10 07:26:18;;;;;;;1999.90;999.90;;;1.90;99.90;;;;;;4964456;28;20645;-83
2021/11/10 07:28:44;;;;;;;1999.90;999.90;;;2.00;99.90;;;;;;4989205;28;20183;-83
2021/11/10 07:31:10;;;;;;;1999.90;999.90;;;2.00;99.90;;;;;;4964964;28;20183;-86
2021/11/10 07:33:35;;;;;;;1999.90;999.90;;;2.10;99.90;;;;;;4963878;28;20190;-88
2021/11/10 07:36:01;;;;;;;1999.90;999.90;;;2.20;99.90;;;;;;4964019;28;20176;-86
2021/11/10 07:38:27;;;;;;;1999.90;999.90;;;2.20;99.90;;;;;;4957932;28;20268;-83
2021/11/10 07:40:53;;;;;;;1999.90;999.90;;;2.30;99.90;;;;;;4970756;28;20199;-86
2021/11/10 07:43:20;;;;;;;1999.90;999.90;;;2.40;99.90;;;;;;4964395;28;20201;-89
2021/11/10 07:45:50;;;;;;;1999.90;999.90;;;2.40;99.90;;;;;;4964450;28;20222;-84
2021/11/10 07:48:17;;;;;;;1999.90;999.90;;;2.50;99.90;;;;;;4980135;28;20212;-81
2021/11/10 07:50:43;;;;;;;1999.90;999.90;;;2.50;99.90;;;;;;4962263;28;20614;-84
2021/11/10 07:53:09;;;;;;;1999.90;999.90;;;2.50;99.90;;;;;;4963900;28;20180;-81
2021/11/10 07:55:35;;;;;;;1999.90;999.90;;;2.50;99.90;;;;;;4978628;28;20180;-82
2021/11/10 07:58:00;;;;;;;1999.90;999.90;;;2.60;99.90;;;;;;4961630;28;20259;-78
2021/11/10 08:00:26;;;;;;;1999.90;999.90;;;2.70;99.90;;;;;;4994944;28;20187;-78
2021/11/10 08:02:51;;;;;;;1999.90;999.90;;;2.70;99.90;;;;;;4979138;28;20180;-78
2021/11/10 08:05:17;;;;;;;1999.90;999.90;;;2.80;99.90;;;;;;4979529;28;20220;-80
2021/11/10 08:07:43;;;;;;;1999.90;999.90;;;2.80;99.90;;;;;;4961499;28;20207;-77
2021/11/10 08:10:10;;;;;;;1999.90;999.90;;;2.90;99.90;;;;;;4958918;28;20212;-77
2021/11/10 08:12:36;;;;;;;1999.90;999.90;;;2.90;99.90;;;;;;4992383;28;20172;-78
2021/11/10 08:15:10;;;;;;;1999.90;999.90;;;2.90;99.90;;;;;;4992720;28;20183;-80
2021/11/10 08:17:36;;;;;;;1999.90;999.90;;;3.00;99.90;;;;;;4992924;28;20196;-77
2021/11/10 08:20:17;;;;;;;1999.90;999.90;;;3.10;99.90;;;;;;4976696;28;20184;-77
2021/11/10 08:22:43;;;;;;;1999.90;999.90;;;3.20;99.90;;;;;;4979508;28;20687;-79
2021/11/10 08:25:10;;;;;;;1999.90;999.90;;;;;;;;;;4960299;28;20195;-77
2021/11/10 08:27:37;;;;;;;1999.90;999.90;;;;;;;;;;4979661;28;20208;-82
2021/11/10 08:30:04;;;;;;;1999.90;999.90;;;3.20;99.90;;;;;;4964257;28;20208;-80
2021/11/10 08:32:30;;;;;;;1999.90;999.90;;;3.40;99.90;;;;;;4974576;28;20227;-78
2021/11/10 08:34:55;;;;;;;1999.90;999.90;;;3.50;99.90;;;;;;4981196;28;20179;-79
2021/11/10 08:37:21;;;;;;;1999.90;999.90;;;3.50;99.90;;;;;;4964592;28;20228;-78
2021/11/10 08:39:46;;;;;;;1999.90;999.90;;;3.60;99.90;;;;;;4957945;28;20193;-77
2021/11/10 08:42:12;;;;;;;1999.90;999.90;;;3.90;99.90;;;;;;4960895;28;20208;-78
2021/11/10 08:44:43;;;;;;;1999.90;999.90;;;4.00;99.90;;;;;;4962121;29;20228;-78
2021/11/10 08:47:09;;;;;;;1999.90;999.90;;;4.10;99.90;;;;;;4976988;28;20262;-82
2021/11/10 08:49:35;;;;;;;1999.90;999.90;;;4.10;99.90;;;;;;4961400;28;20205;-78
2021/11/10 08:52:00;;;;;;;1999.90;999.90;;;4.20;99.90;;;;;;4965606;29;20186;-80
2021/11/10 08:54:26;;;;;;;1999.90;999.90;;;4.40;99.90;;;;;;4986225;28;20195;-77
2021/11/10 08:56:54;;;;;;;1999.90;999.90;;;4.40;99.90;;;;;;4969706;28;20199;-79
2021/11/10 08:59:20;;;;;;;1999.90;999.90;;;4.30;99.90;;;;;;4963187;28;20187;-79
2021/11/10 09:01:48;;;;;;;1999.90;999.90;;;4.40;99.90;;;;;;4990937;28;20179;-79
2021/11/10 09:04:15;;;;;;;1999.90;999.90;;;4.40;99.90;;;;;;4950376;28;20188;-79
2021/11/10 09:06:41;;;;;;;1999.90;999.90;;;4.50;99.90;;;;;;4996670;28;20203;-78
2021/11/10 09:09:07;;;;;;;1999.90;999.90;;;4.50;99.90;;;;;;4943948;28;20199;-76
2021/11/10 09:11:32;;;;;;;1999.90;999.90;;;4.60;99.90;;;;;;4983145;28;20514;-78
2021/11/10 09:13:58;;;;;;;1999.90;999.90;;;4.60;99.90;;;;;;4981650;28;20200;-78
2021/11/10 09:16:23;;;;;;;1999.90;999.90;;;4.70;99.90;;;;;;4965767;28;20195;-79
2021/11/10 09:18:49;;;;;;;1999.90;999.90;;;4.70;99.90;;;;;;4960530;28;20177;-79
2021/11/10 09:21:14;;;;;;;1999.90;999.90;;;4.80;99.90;;;;;;4957311;28;20528;-77
2021/11/10 09:23:40;;;;;;;1999.90;999.90;;;4.90;99.90;;;;;;4959422;28;20581;-77
2021/11/10 09:26:06;;;;;;;1999.90;999.90;;;5.00;99.90;;;;;;4954673;28;20190;-78
2021/11/10 09:28:32;;;;;;;1999.90;999.90;;;5.20;99.90;;;;;;4964908;28;20176;-78
2021/11/10 09:30:58;;;;;;;1999.90;999.90;;;5.20;99.90;;;;;;4978941;28;20215;-79
2021/11/10 09:33:24;;;;;;;1999.90;999.90;;;5.30;99.90;;;;;;4995415;28;20650;-79
2021/11/10 09:35:50;;;;;;;1999.90;999.90;;;5.30;99.90;;;;;;4979313;28;20195;-77
2021/11/10 09:38:15;;;;;;;1999.90;999.90;;;5.40;99.90;;;;;;4958085;28;20217;-77
2021/11/10 09:40:41;;;;;;;1999.90;999.90;;;5.50;99.90;;;;;;4992009;28;20177;-77
2021/11/10 09:43:07;;;;;;;1999.90;999.90;;;5.50;99.90;;;;;;5003573;28;20185;-75
2021/11/10 09:45:34;;;;;;;1999.90;999.90;;;5.70;99.90;;;;;;4963597;28;20267;-77
2021/11/10 09:48:01;;;;;;;1999.90;999.90;;;5.80;99.90;;;;;;4975032;28;20221;-75
2021/11/10 09:50:27;;;;;;;1999.90;999.90;;;5.90;99.90;;;;;;4965158;28;20561;-77
2021/11/10 09:52:53;;;;;;;1999.90;999.90;;;6.10;99.90;;;;;;4952461;28;20207;-77
2021/11/10 09:55:20;;;;;;;1999.90;999.90;;;6.10;99.90;;;;;;4994622;28;20746;-76
2021/11/10 09:57:47;;;;;;;1999.90;999.90;;;6.20;99.90;;;;;;4945350;28;20196;-74
2021/11/10 10:00:16;;;;;;;1999.90;999.90;;;6.30;99.90;;;;;;4995976;28;20176;-76
2021/11/10 10:02:44;;;;;;;1999.90;999.90;;;6.50;99.90;;;;;;4970739;28;20174;-76
2021/11/10 10:05:10;;;;;;;1999.90;999.90;;;6.60;99.90;;;;;;5003749;28;20208;-81
2021/11/10 10:07:36;;;;;;;1999.90;999.90;;;6.70;99.90;;;;;;4962772;28;20240;-77
2021/11/10 10:10:02;;;;;;;1999.90;999.90;;;6.80;99.90;;;;;;4975592;28;20201;-79
2021/11/10 10:12:27;;;;;;;1999.90;999.90;;;7.00;99.90;;;;;;4966101;28;20176;-79
2021/11/10 10:14:54;;;;;;;1999.90;999.90;;;7.10;99.90;;;;;;4952846;28;20173;-80
2021/11/10 10:17:33;;;;;;;1999.90;999.90;;;7.40;99.90;;;;;;4978082;28;20207;-75
2021/11/10 10:19:59;;;;;;;1999.90;999.90;;;7.60;99.90;;;;;;4991782;28;20227;-79
2021/11/10 10:22:25;;;;;;;1999.90;999.90;;;7.70;99.90;;;;;;4962281;28;20223;-74
2021/11/10 10:24:55;;;;;;;1999.90;999.90;;;7.90;99.90;;;;;;4994195;28;20176;-73
2021/11/10 10:27:31;;;;;;;1999.90;999.90;;;8.00;99.90;;;;;;4962002;28;20238;-73
2021/11/10 10:30:22;;;;;;;1999.90;999.90;;;8.20;99.90;;;;;;4964618;28;20640;-76
2021/11/10 10:33:00;;;;;;;1999.90;999.90;;;8.20;99.90;;;;;;4994589;28;20259;-77
2021/11/10 10:35:52;;;;;;;1999.90;999.90;;;8.30;99.90;;;;;;4979313;28;20172;-76
2021/11/10 10:38:20;;;;;;;1999.90;999.90;;;8.30;99.90;;;;;;4963463;28;20243;-79
2021/11/10 10:40:48;;;;;;;1999.90;999.90;;;8.20;99.90;;;;;;4965894;28;20236;-79
2021/11/10 10:43:13;;;;;;;1999.90;999.90;;;8.20;99.90;;;;;;4973513;28;20184;-78
2021/11/10 10:45:44;;;;;;;1999.90;999.90;;;;;;;;;;4990604;28;20549;-78
2021/11/10 10:48:15;;;;;;;1999.90;999.90;;;8.40;99.90;;;;;;4973932;28;20688;-78
2021/11/10 10:50:49;;;;;;;1999.90;999.90;;;8.60;99.90;;;;;;4974211;28;20640;-76
2021/11/10 10:53:19;;;;;;;1999.90;999.90;;;8.70;99.90;;;;;;4974011;28;20180;-76
2021/11/10 10:55:48;;;;;;;1999.90;999.90;;;8.90;99.90;;;;;;4974496;28;20600;-76
2021/11/10 10:58:47;;;;;;;1999.90;999.90;;;9.00;99.90;;;;;;4990848;28;20189;-73
2021/11/10 11:01:28;;;;;;;1999.90;999.90;;;9.20;99.90;;;;;;4990346;28;20252;-74
2021/11/10 11:04:00;;;;;;;1999.90;999.90;;;9.30;99.90;;;;;;4973861;28;20178;-74
2021/11/10 11:06:31;;;;;;;1999.90;999.90;;;9.40;99.90;;;;;;4990052;28;20577;-75
2021/11/10 11:08:59;;;;;;;1999.90;999.90;;;9.40;99.90;;;;;;4989463;28;20180;-75
2021/11/10 11:11:44;;;;;;;1999.90;999.90;;;9.40;99.90;;;;;;5002676;28;20255;-74
2021/11/10 11:14:25;;;;;;;1999.90;999.90;;;9.50;99.90;;;;;;4948522;28;20188;-77
2021/11/10 11:17:04;;;;;;;1999.90;999.90;;;9.60;99.90;;;;;;4987469;28;20559;-77
2021/11/10 11:19:33;;;;;;;1999.90;999.90;;;9.70;99.90;;;;;;4984134;28;20232;-77
2021/11/10 11:21:59;;;;;;;1999.90;999.90;;;9.90;99.90;;;;;;4962403;28;20181;-78
2021/11/10 11:24:35;;;;;;;1999.90;999.90;;;9.90;99.90;;;;;;5006083;28;20195;-78
2021/11/10 11:27:14;;;;;;;1999.90;999.90;;;9.70;99.90;;;;;;4980610;28;20209;-78
2021/11/10 11:29:40;;;;;;;1999.90;999.90;;;9.80;99.90;;;;;;4963921;28;20619;-78
2021/11/10 11:32:31;;;;;;;1999.90;999.90;;;9.70;99.90;;;;;;4973184;28;20648;-76
2021/11/10 11:35:11;;;;;;;1999.90;999.90;;;9.70;99.90;;;;;;4967455;28;20179;-76
2021/11/10 11:37:37;;;;;;;1999.90;999.90;;;9.70;99.90;;;;;;4992685;28;20321;-76
2021/11/10 11:40:13;;;;;;;1999.90;999.90;;;9.60;99.90;;;;;;4945003;28;20553;-77
2021/11/10 11:42:39;;;;;;;1999.90;999.90;;;9.60;99.90;;;;;;4962863;28;20201;-76
2021/11/10 11:45:06;;;;;;;1999.90;999.90;;;9.60;99.90;;;;;;4952264;28;20570;-77
2021/11/10 11:47:31;;;;;;;1999.90;999.90;;;9.50;99.90;;;;;;4992315;28;20223;-77
2021/11/10 11:50:03;;;;;;;1999.90;999.90;;;9.50;99.90;;;;;;4976190;28;20209;-77
2021/11/10 11:52:32;;;;;;;1999.90;999.90;;;9.40;99.90;;;;;;4957831;28;20228;-76
2021/11/10 11:55:15;;;;;;;1999.90;999.90;;;9.60;99.90;;;;;;4957131;28;20185;-77
2021/11/10 11:57:43;;;;;;;1999.90;999.90;;;9.60;99.90;;;;;;4955299;28;20206;-76
2021/11/10 12:00:09;;;;;;;1999.90;999.90;;;9.50;99.90;;;;;;4943897;28;20192;-75
2021/11/10 12:02:39;;;;;;;1999.90;999.90;;;9.60;99.90;;;;;;4977472;28;20183;-77
2021/11/10 12:05:20;;;;;;;1999.90;999.90;;;9.70;99.90;;;;;;4968791;28;20287;-75
2021/11/10 12:07:56;;;;;;;1999.90;999.90;;;9.60;99.90;;;;;;4968518;28;20575;-75
2021/11/10 12:10:21;;;;;;;1999.90;999.90;;;9.60;99.90;;;;;;4958090;28;20204;-76